Galvana — EA2967 — position and weather

sailwx.info

Track history (hours):
 
Tides and Currents Weather Stations Pressure Air Temp Water Temp Dewpoint Dewpoint Depression Visibility Wind Speed Wind Dir Waves Ship Positions

Galvana

Last reported at 2017-Oct-01 10:07 UTC. Time now 2017-Nov-21 15:16 UTC.
Position N 43°29' E 006°58'.
Warning: this ship's position is 51 days out of date.

Length 16 m.

Type: Sailing vessel. MMSI: 224030160.

Date/timePositionNaut miles runAvg speedWind from/ knotsBaromVisibWave heightAir tempDewpointWater temp
2017-Oct-01 10:07N 43°29' E 006°58'1 8.4
2017-Oct-01 10:01N 43°30' E 006°58'3 5.8
2017-Oct-01 09:28N 43°32' E 007°00'0 0.2
2017-Oct-01 08:58N 43°32' E 007°00'1 1.2
2017-Oct-01 08:27N 43°33' E 007°01'0 0.0
2017-Sep-29 15:39N 43°33' E 007°02'0 0.2
2017-Sep-29 14:53N 43°33' E 007°01'0 1.3
2017-Sep-29 14:30N 43°32' E 007°01'1 2.8
2017-Sep-29 14:00N 43°32' E 006°59'3 5.5
2017-Sep-29 13:31N 43°29' E 006°58'3 4.9
2017-Sep-29 12:51N 43°30' E 007°02'2 5.0
2017-Sep-29 12:30N 43°31' E 007°00'2 3.6
2017-Sep-29 12:00N 43°33' E 006°59'1 1.2
2017-Sep-29 11:29N 43°33' E 006°60'1 0.9
2017-Sep-29 10:55N 43°33' E 006°59'1 2.8
2017-Sep-29 10:30N 43°31' E 006°59'1 1.3
2017-Sep-29 09:54N 43°32' E 006°59'0 0.5
2017-Sep-29 09:29N 43°32' E 006°59'1 2.0
2017-Sep-29 08:57N 43°32' E 007°00'1 0.0
2017-Sep-28 14:57N 43°33' E 007°01'0 0.5
2017-Sep-28 14:21N 43°33' E 007°01'1 2.0
2017-Sep-28 13:59N 43°32' E 007°00'2 4.5
2017-Sep-28 13:30N 43°32' E 006°58'2 3.1
2017-Sep-28 13:00N 43°30' E 006°58'2 4.2
2017-Sep-28 12:29N 43°32' E 006°60'3 5.3
2017-Sep-28 12:01N 43°30' E 006°58'1 2.1
2017-Sep-28 11:30N 43°31' E 006°58'2 3.4
2017-Sep-28 10:57N 43°33' E 006°59'0 0.8
2017-Sep-28 10:30N 43°32' E 006°59'0 0.3
2017-Sep-28 10:00N 43°33' E 006°59'1 1.3
2017-Sep-28 09:27N 43°32' E 006°60'0 0.8
2017-Sep-28 08:56N 43°32' E 007°00'1 0.0
2017-Sep-27 15:14N 43°33' E 007°01'0 0.7
2017-Sep-27 14:32N 43°33' E 007°02'0 0.4
2017-Sep-27 14:29N 43°33' E 007°02'3 2.6
2017-Sep-27 13:30N 43°31' E 006°59'2 4.5
2017-Sep-27 12:59N 43°29' E 006°58'1 2.0
2017-Sep-27 12:30N 43°29' E 006°59'2 3.4
2017-Sep-27 12:00N 43°30' E 006°58'2 5.0
2017-Sep-27 11:31N 43°32' E 006°59'0 0.2
2017-Sep-27 11:00N 43°32' E 006°59'0 0.4
2017-Sep-27 10:28N 43°32' E 006°59'1 1.4
2017-Sep-27 09:50N 43°33' E 007°00'0 1.0
2017-Sep-27 09:30N 43°32' E 007°01'0 0.0
2017-Sep-26 15:44N 43°33' E 007°01'1 2.2
2017-Sep-26 15:30N 43°32' E 007°01'2 4.7
2017-Sep-26 15:00N 43°30' E 006°59'2 3.2
2017-Sep-26 14:29N 43°29' E 006°58'1 1.9
2017-Sep-26 14:00N 43°29' E 006°59'2 4.7
2017-Sep-26 13:29N 43°29' E 007°02'1 1.2
2017-Sep-26 12:59N 43°30' E 007°03'0 0.5
2017-Sep-26 12:29N 43°30' E 007°02'1 1.8
2017-Sep-26 12:00N 43°31' E 007°02'2 3.3
2017-Sep-26 11:30N 43°32' E 007°00'1 1.9
2017-Sep-26 11:00N 43°32' E 006°59'1 1.4
2017-Sep-26 10:30N 43°32' E 006°59'1 1.1
2017-Sep-26 10:00N 43°32' E 006°59'1 1.4
2017-Sep-26 09:30N 43°32' E 006°60'0 0.9
2017-Sep-26 08:58N 43°32' E 007°01'0 0.9
2017-Sep-26 08:30N 43°32' E 007°01'0 0.0
2017-Sep-25 15:46N 43°33' E 007°01'1 4.2
2017-Sep-25 15:29N 43°32' E 007°02'0 0.0
2017-Sep-25 14:59N 43°32' E 007°02'0 0.0
2017-Sep-25 14:29N 43°32' E 007°02'0 0.0
2017-Sep-25 13:59N 43°32' E 007°02'0 0.0
2017-Sep-25 13:29N 43°32' E 007°02'1 2.7
2017-Sep-25 12:58N 43°32' E 007°00'1 1.9
2017-Sep-25 12:30N 43°32' E 006°59'2 3.7
2017-Sep-25 11:55N 43°31' E 007°02'1 2.5
2017-Sep-25 11:25N 43°32' E 007°01'1 1.1
2017-Sep-25 10:55N 43°33' E 007°01'0 0.0
2017-Sep-24 16:36N 43°33' E 007°01'1 5.6
2017-Sep-24 16:30N 43°32' E 007°01'1 1.4
2017-Sep-24 15:59N 43°32' E 007°02'0 0.0
2017-Sep-24 15:29N 43°32' E 007°02'0 0.0
2017-Sep-24 14:59N 43°32' E 007°02'0 0.6
2017-Sep-24 14:30N 43°32' E 007°02'2 4.5
2017-Sep-24 14:00N 43°32' E 006°59'2 2.8
2017-Sep-24 13:24N 43°31' E 007°01'1 0.8
2017-Sep-24 12:05N 43°30' E 007°02'0 2.3
2017-Sep-24 11:54N 43°31' E 007°01'1 2.8
2017-Sep-24 11:29N 43°32' E 007°01'  
Track history (hours):
 
Tides and Currents Weather Stations Pressure Air Temp Water Temp Dewpoint Dewpoint Depression Visibility Wind Speed Wind Dir Waves Ship Positions

Galvana

Last reported at 2017-Oct-01 10:07 UTC. Time now 2017-Nov-21 15:16 UTC.
Position N 43°29' E 006°58'.
Warning: this ship's position is 51 days out of date.

Length 16 m.

Type: Sailing vessel. MMSI: 224030160.

Date/timePositionNaut miles runAvg speedWind from/ knotsBaromVisibWave heightAir tempDewpointWater temp
2017-Oct-01 10:07N 43°29' E 006°58'1 8.4
2017-Oct-01 10:01N 43°30' E 006°58'3 5.8
2017-Oct-01 09:28N 43°32' E 007°00'0 0.2
2017-Oct-01 08:58N 43°32' E 007°00'1 1.2
2017-Oct-01 08:27N 43°33' E 007°01'0 0.0
2017-Sep-29 15:39N 43°33' E 007°02'0 0.2
2017-Sep-29 14:53N 43°33' E 007°01'0 1.3
2017-Sep-29 14:30N 43°32' E 007°01'1 2.8
2017-Sep-29 14:00N 43°32' E 006°59'3 5.5
2017-Sep-29 13:31N 43°29' E 006°58'3 4.9
2017-Sep-29 12:51N 43°30' E 007°02'2 5.0
2017-Sep-29 12:30N 43°31' E 007°00'2 3.6
2017-Sep-29 12:00N 43°33' E 006°59'1 1.2
2017-Sep-29 11:29N 43°33' E 006°60'1 0.9
2017-Sep-29 10:55N 43°33' E 006°59'1 2.8
2017-Sep-29 10:30N 43°31' E 006°59'1 1.3
2017-Sep-29 09:54N 43°32' E 006°59'0 0.5
2017-Sep-29 09:29N 43°32' E 006°59'1 2.0
2017-Sep-29 08:57N 43°32' E 007°00'1 0.0
2017-Sep-28 14:57N 43°33' E 007°01'0 0.5
2017-Sep-28 14:21N 43°33' E 007°01'1 2.0
2017-Sep-28 13:59N 43°32' E 007°00'2 4.5
2017-Sep-28 13:30N 43°32' E 006°58'2 3.1
2017-Sep-28 13:00N 43°30' E 006°58'2 4.2
2017-Sep-28 12:29N 43°32' E 006°60'3 5.3
2017-Sep-28 12:01N 43°30' E 006°58'1 2.1
2017-Sep-28 11:30N 43°31' E 006°58'2 3.4
2017-Sep-28 10:57N 43°33' E 006°59'0 0.8
2017-Sep-28 10:30N 43°32' E 006°59'0 0.3
2017-Sep-28 10:00N 43°33' E 006°59'1 1.3
2017-Sep-28 09:27N 43°32' E 006°60'0 0.8
2017-Sep-28 08:56N 43°32' E 007°00'1 0.0
2017-Sep-27 15:14N 43°33' E 007°01'0 0.7
2017-Sep-27 14:32N 43°33' E 007°02'0 0.4
2017-Sep-27 14:29N 43°33' E 007°02'3 2.6
2017-Sep-27 13:30N 43°31' E 006°59'2 4.5
2017-Sep-27 12:59N 43°29' E 006°58'1 2.0
2017-Sep-27 12:30N 43°29' E 006°59'2 3.4
2017-Sep-27 12:00N 43°30' E 006°58'2 5.0
2017-Sep-27 11:31N 43°32' E 006°59'0 0.2
2017-Sep-27 11:00N 43°32' E 006°59'0 0.4
2017-Sep-27 10:28N 43°32' E 006°59'1 1.4
2017-Sep-27 09:50N 43°33' E 007°00'0 1.0
2017-Sep-27 09:30N 43°32' E 007°01'0 0.0
2017-Sep-26 15:44N 43°33' E 007°01'1 2.2
2017-Sep-26 15:30N 43°32' E 007°01'2 4.7
2017-Sep-26 15:00N 43°30' E 006°59'2 3.2
2017-Sep-26 14:29N 43°29' E 006°58'1 1.9
2017-Sep-26 14:00N 43°29' E 006°59'2 4.7
2017-Sep-26 13:29N 43°29' E 007°02'1 1.2
2017-Sep-26 12:59N 43°30' E 007°03'0 0.5
2017-Sep-26 12:29N 43°30' E 007°02'1 1.8
2017-Sep-26 12:00N 43°31' E 007°02'2 3.3
2017-Sep-26 11:30N 43°32' E 007°00'1 1.9
2017-Sep-26 11:00N 43°32' E 006°59'1 1.4
2017-Sep-26 10:30N 43°32' E 006°59'1 1.1
2017-Sep-26 10:00N 43°32' E 006°59'1 1.4
2017-Sep-26 09:30N 43°32' E 006°60'0 0.9
2017-Sep-26 08:58N 43°32' E 007°01'0 0.9
2017-Sep-26 08:30N 43°32' E 007°01'0 0.0
2017-Sep-25 15:46N 43°33' E 007°01'1 4.2
2017-Sep-25 15:29N 43°32' E 007°02'0 0.0
2017-Sep-25 14:59N 43°32' E 007°02'0 0.0
2017-Sep-25 14:29N 43°32' E 007°02'0 0.0
2017-Sep-25 13:59N 43°32' E 007°02'0 0.0
2017-Sep-25 13:29N 43°32' E 007°02'1 2.7
2017-Sep-25 12:58N 43°32' E 007°00'1 1.9
2017-Sep-25 12:30N 43°32' E 006°59'2 3.7
2017-Sep-25 11:55N 43°31' E 007°02'1 2.5
2017-Sep-25 11:25N 43°32' E 007°01'1 1.1
2017-Sep-25 10:55N 43°33' E 007°01'0 0.0
2017-Sep-24 16:36N 43°33' E 007°01'1 5.6
2017-Sep-24 16:30N 43°32' E 007°01'1 1.4
2017-Sep-24 15:59N 43°32' E 007°02'0 0.0
2017-Sep-24 15:29N 43°32' E 007°02'0 0.0
2017-Sep-24 14:59N 43°32' E 007°02'0 0.6
2017-Sep-24 14:30N 43°32' E 007°02'2 4.5
2017-Sep-24 14:00N 43°32' E 006°59'2 2.8
2017-Sep-24 13:24N 43°31' E 007°01'1 0.8
2017-Sep-24 12:05N 43°30' E 007°02'0 2.3
2017-Sep-24 11:54N 43°31' E 007°01'1 2.8
2017-Sep-24 11:29N 43°32' E 007°01'  

Dump ship's entire track history